createdAt,value
2022-11-21T00:00:53.629Z,0.90
2022-11-21T00:03:20.606Z,1.00
2022-11-21T00:05:49.368Z,0.95
2022-11-21T00:08:18.771Z,1.10
2022-11-21T00:10:45.914Z,1.00
2022-11-21T00:13:18.373Z,1.45
2022-11-21T00:15:45.710Z,1.20
2022-11-21T00:18:12.949Z,1.50
2022-11-21T00:20:41.042Z,1.05
2022-11-21T00:23:08.007Z,1.00
2022-11-21T00:25:35.503Z,1.35
2022-11-21T00:28:02.282Z,1.35
2022-11-21T00:30:29.341Z,1.10
2022-11-21T00:32:57.879Z,1.23
2022-11-21T00:35:24.681Z,1.10
2022-11-21T00:37:51.456Z,1.30
2022-11-21T00:40:18.584Z,1.40
2022-11-21T00:42:45.361Z,1.20
2022-11-21T00:45:12.272Z,1.10
2022-11-21T00:47:39.184Z,2.20
2022-11-21T00:50:06.322Z,1.23
2022-11-21T00:52:33.099Z,1.10
2022-11-21T00:54:59.912Z,1.73
2022-11-21T00:57:26.727Z,1.65
2022-11-21T00:59:53.538Z,2.10
2022-11-21T01:02:20.320Z,1.17
2022-11-21T01:04:47.126Z,1.23
2022-11-21T01:07:15.036Z,1.00
2022-11-21T01:09:41.953Z,1.13
2022-11-21T01:12:08.846Z,1.33
2022-11-21T01:14:35.888Z,0.93
2022-11-21T01:17:02.870Z,1.10
2022-11-21T01:19:29.710Z,1.00
2022-11-21T01:21:56.443Z,0.70
2022-11-21T01:24:23.201Z,1.10
2022-11-21T01:26:51.144Z,1.40
2022-11-21T01:29:18.096Z,1.30
2022-11-21T01:31:44.893Z,1.02
2022-11-21T01:34:11.745Z,1.33
2022-11-21T01:36:38.527Z,1.17
2022-11-21T01:39:07.076Z,1.35
2022-11-21T01:41:36.645Z,0.82
2022-11-21T01:44:21.268Z,1.20
2022-11-21T01:46:49.053Z,1.40
2022-11-21T01:49:23.403Z,1.38
2022-11-21T01:51:58.087Z,1.40
2022-11-21T01:54:39.735Z,1.50
2022-11-21T01:57:29.307Z,1.13
2022-11-21T02:00:08.887Z,1.00
2022-11-21T02:02:46.120Z,1.10
2022-11-21T02:05:17.333Z,0.90
2022-11-21T02:07:47.699Z,1.13
2022-11-21T02:10:16.010Z,0.75
2022-11-21T02:12:53.943Z,1.15
2022-11-21T02:15:26.404Z,0.80
2022-11-21T02:17:53.538Z,0.73
2022-11-21T02:20:23.351Z,0.88
2022-11-21T02:23:05.261Z,0.80
2022-11-21T02:25:35.762Z,0.80
2022-11-21T02:28:05.517Z,0.50
2022-11-21T02:30:34.861Z,0.60
2022-11-21T02:33:01.619Z,1.05
2022-11-21T02:35:28.393Z,0.57
2022-11-21T02:38:11.959Z,0.90
2022-11-21T02:40:48.664Z,0.60
2022-11-21T02:43:22.018Z,1.15
2022-11-21T02:45:48.864Z,1.05
2022-11-21T02:48:15.719Z,1.00
2022-11-21T02:50:45.114Z,1.05
2022-11-21T02:53:17.274Z,0.70
2022-11-21T02:55:44.815Z,0.98
2022-11-21T02:58:12.715Z,0.90
2022-11-21T03:00:41.426Z,0.90
2022-11-21T03:03:08.830Z,0.77
2022-11-21T03:05:35.841Z,0.82
2022-11-21T03:08:03.264Z,0.80
2022-11-21T03:10:30.331Z,0.95
2022-11-21T03:13:01.033Z,0.88
2022-11-21T03:15:30.318Z,1.00
2022-11-21T03:17:57.715Z,0.93
2022-11-21T03:20:24.957Z,1.30
2022-11-21T03:22:53.540Z,0.77
2022-11-21T03:25:20.645Z,0.90
2022-11-21T03:27:50.239Z,1.27
2022-11-21T03:30:17.072Z,0.80
2022-11-21T03:32:43.873Z,0.82
2022-11-21T03:35:10.737Z,1.00
2022-11-21T03:37:37.559Z,0.70
2022-11-21T03:40:05.039Z,1.00
2022-11-21T03:42:31.808Z,0.70
2022-11-21T03:44:58.595Z,0.63
2022-11-21T03:47:27.435Z,0.95
2022-11-21T03:49:54.243Z,0.60
2022-11-21T03:52:21.726Z,0.70
2022-11-21T03:54:48.498Z,1.15
2022-11-21T03:57:15.434Z,0.70
2022-11-21T03:59:42.238Z,0.80
2022-11-21T04:02:09.079Z,0.85
2022-11-21T04:04:35.885Z,0.90
2022-11-21T04:07:02.668Z,0.85
2022-11-21T04:09:29.436Z,0.57
2022-11-21T04:11:56.282Z,0.77
2022-11-21T04:14:23.014Z,1.05
2022-11-21T04:16:49.932Z,0.57
2022-11-21T04:19:16.655Z,0.70
2022-11-21T04:21:43.448Z,0.50
2022-11-21T04:24:10.238Z,0.55
2022-11-21T04:26:36.971Z,0.65
2022-11-21T04:29:03.768Z,0.60
2022-11-21T04:31:30.562Z,0.75
2022-11-21T04:33:57.339Z,0.77
2022-11-21T04:36:24.108Z,0.60
2022-11-21T04:38:50.924Z,0.38
2022-11-21T04:41:17.725Z,0.60
2022-11-21T04:43:44.549Z,0.40
2022-11-21T04:46:11.341Z,0.50
2022-11-21T04:48:38.098Z,0.52
2022-11-21T04:51:04.902Z,0.40
2022-11-21T04:53:31.658Z,0.63
2022-11-21T04:55:58.493Z,0.70
2022-11-21T04:58:25.279Z,0.55
2022-11-21T05:00:52.092Z,1.55
2022-11-21T05:03:18.822Z,0.50
2022-11-21T05:05:45.685Z,0.60
2022-11-21T05:08:12.447Z,0.50
2022-11-21T05:10:58.089Z,0.43
2022-11-21T05:13:25.157Z,0.60
2022-11-21T05:15:57.510Z,0.30
2022-11-21T05:18:24.934Z,0.50
2022-11-21T05:20:51.692Z,0.35
2022-11-21T05:23:18.482Z,0.40
2022-11-21T05:25:45.226Z,0.50
2022-11-21T05:28:11.986Z,0.50
2022-11-21T05:30:38.805Z,0.60
2022-11-21T05:33:05.747Z,0.60
2022-11-21T05:35:32.529Z,0.70
2022-11-21T05:37:59.596Z,0.85
2022-11-21T05:40:26.782Z,0.40
2022-11-21T05:43:11.981Z,0.50
2022-11-21T05:45:38.762Z,0.50
2022-11-21T05:48:08.606Z,0.80
2022-11-21T05:50:36.695Z,0.50
2022-11-21T05:53:04.762Z,0.40
2022-11-21T05:55:34.055Z,0.50
2022-11-21T05:58:01.251Z,0.85
2022-11-21T06:00:29.167Z,0.65
2022-11-21T06:03:14.657Z,0.50
2022-11-21T06:05:41.807Z,0.70
2022-11-21T06:08:08.628Z,0.50
2022-11-21T06:10:35.681Z,0.50
2022-11-21T06:13:03.113Z,0.52
2022-11-21T06:15:30.136Z,0.60
2022-11-21T06:17:59.881Z,0.63
2022-11-21T06:20:26.663Z,0.50
2022-11-21T06:22:53.513Z,0.77
2022-11-21T06:25:20.272Z,0.80
2022-11-21T06:27:47.027Z,0.70
2022-11-21T06:30:17.656Z,0.90
2022-11-21T06:32:47.682Z,0.65
2022-11-21T06:35:14.668Z,0.70
2022-11-21T06:37:41.436Z,0.60
2022-11-21T06:40:08.807Z,1.35
2022-11-21T06:42:35.588Z,0.80
2022-11-21T06:45:02.347Z,0.63
2022-11-21T06:47:29.099Z,0.60
2022-11-21T06:49:55.828Z,1.00
2022-11-21T06:52:22.592Z,0.55
2022-11-21T06:54:49.310Z,0.80
2022-11-21T06:57:17.078Z,0.70
2022-11-21T06:59:43.904Z,0.70
2022-11-21T07:02:13.887Z,0.55
2022-11-21T07:04:40.750Z,0.93
2022-11-21T07:07:07.684Z,1.15
2022-11-21T07:09:35.769Z,1.02
2022-11-21T07:12:26.137Z,1.38
2022-11-21T07:14:52.968Z,0.70
2022-11-21T07:17:19.735Z,0.77
2022-11-21T07:19:46.645Z,0.50
2022-11-21T07:22:13.440Z,0.65
2022-11-21T07:24:40.197Z,0.52
2022-11-21T07:27:06.930Z,0.70
2022-11-21T07:29:33.640Z,0.52
2022-11-21T07:32:00.422Z,0.70
2022-11-21T07:34:27.198Z,0.90
2022-11-21T07:36:54.231Z,0.75
2022-11-21T07:39:21.014Z,0.88
2022-11-21T07:41:47.818Z,0.70
2022-11-21T07:44:14.646Z,0.82
2022-11-21T07:46:41.357Z,0.73
2022-11-21T07:49:08.132Z,0.90
2022-11-21T07:51:34.894Z,0.80
2022-11-21T07:54:01.962Z,1.08
2022-11-21T07:56:28.802Z,1.02
2022-11-21T07:58:55.584Z,0.77
2022-11-21T08:01:22.450Z,1.05
2022-11-21T08:03:49.199Z,0.98
2022-11-21T08:06:16.287Z,0.98
2022-11-21T08:08:43.400Z,1.00
2022-11-21T08:11:10.162Z,1.00
2022-11-21T08:13:37.059Z,0.95
2022-11-21T08:16:05.015Z,0.85
2022-11-21T08:18:31.982Z,0.93
2022-11-21T08:21:02.499Z,0.90
2022-11-21T08:23:29.418Z,1.10
2022-11-21T08:25:56.296Z,0.90
2022-11-21T08:28:24.244Z,0.93
2022-11-21T08:30:51.217Z,0.77
2022-11-21T08:33:17.972Z,1.10
2022-11-21T08:35:44.800Z,0.90
2022-11-21T08:38:11.577Z,0.82
2022-11-21T08:40:38.344Z,0.80
2022-11-21T08:43:08.450Z,0.80
2022-11-21T08:45:37.072Z,0.80
2022-11-21T08:48:04.560Z,0.70
2022-11-21T08:50:32.224Z,0.65
2022-11-21T08:53:02.662Z,0.60
2022-11-21T08:55:30.203Z,0.82
2022-11-21T08:57:57.128Z,0.50
2022-11-21T09:00:24.019Z,0.55
2022-11-21T09:02:50.873Z,0.80
2022-11-21T09:05:17.960Z,1.30
2022-11-21T09:07:44.853Z,0.90
2022-11-21T09:10:11.778Z,0.70
2022-11-21T09:12:38.589Z,0.50
2022-11-21T09:15:24.600Z,0.80
2022-11-21T09:18:03.521Z,0.70
2022-11-21T09:20:40.628Z,0.77
2022-11-21T09:23:08.797Z,0.93
2022-11-21T09:25:35.675Z,1.52
2022-11-21T09:28:04.012Z,0.80
2022-11-21T09:30:30.821Z,0.68
2022-11-21T09:33:01.921Z,0.90
2022-11-21T09:35:29.148Z,1.00
2022-11-21T09:37:55.997Z,0.98
2022-11-21T09:40:23.338Z,0.80
2022-11-21T09:43:11.173Z,0.70
2022-11-21T09:45:55.597Z,0.90
2022-11-21T09:48:39.636Z,0.90
2022-11-21T09:51:13.546Z,0.88
2022-11-21T09:53:58.302Z,0.80
2022-11-21T09:56:28.736Z,1.00
2022-11-21T09:59:07.149Z,0.80
2022-11-21T10:01:34.203Z,1.10
2022-11-21T10:04:03.746Z,0.90
2022-11-21T10:06:36.515Z,0.80
2022-11-21T10:09:24.628Z,0.88
2022-11-21T10:12:35.168Z,0.75
2022-11-21T10:15:26.561Z,1.02
2022-11-21T10:18:04.478Z,1.08
2022-11-21T10:20:46.454Z,1.60
2022-11-21T10:23:42.461Z,1.10
2022-11-21T10:26:20.243Z,0.95
2022-11-21T10:28:54.437Z,0.80
2022-11-21T10:31:21.553Z,1.27
2022-11-21T10:33:50.740Z,1.23
2022-11-21T10:36:37.827Z,0.80
2022-11-21T10:39:31.406Z,1.25
2022-11-21T10:42:18.051Z,1.08
2022-11-21T10:45:05.560Z,1.10
2022-11-21T10:47:37.486Z,1.00
2022-11-21T10:50:10.229Z,1.20
2022-11-21T10:52:48.049Z,0.80
2022-11-21T10:55:17.647Z,0.93
2022-11-21T10:57:51.836Z,1.23
2022-11-21T11:00:25.693Z,1.30
2022-11-21T11:03:05.346Z,1.20
2022-11-21T11:05:38.989Z,1.00
2022-11-21T11:08:09.778Z,1.50
2022-11-21T11:10:42.465Z,1.58
2022-11-21T11:13:46.852Z,1.10
2022-11-21T11:16:19.153Z,1.20
2022-11-21T11:18:58.682Z,1.00
2022-11-21T11:21:28.794Z,1.17
2022-11-21T11:24:09.325Z,1.23
2022-11-21T11:26:58.564Z,1.33
2022-11-21T11:29:30.719Z,0.75
2022-11-21T11:32:02.234Z,1.00
2022-11-21T11:34:37.284Z,0.90
2022-11-21T11:37:23.025Z,0.73
2022-11-21T11:40:19.131Z,0.85
2022-11-21T11:43:35.560Z,1.45
2022-11-21T11:46:34.941Z,0.88
2022-11-21T11:49:20.208Z,0.90
2022-11-21T11:52:06.648Z,1.02
2022-11-21T11:54:45.417Z,0.80
2022-11-21T11:57:14.027Z,1.33
2022-11-21T11:59:48.625Z,1.45
2022-11-21T12:02:33.676Z,1.23
2022-11-21T12:05:10.716Z,1.00
2022-11-21T12:08:39.653Z,1.00
2022-11-21T12:11:09.927Z,1.20
2022-11-21T12:13:37.622Z,0.80
2022-11-21T12:16:13.671Z,0.93
2022-11-21T12:18:51.361Z,1.30
2022-11-21T12:21:18.919Z,0.95
2022-11-21T12:23:49.983Z,1.98
2022-11-21T12:26:57.083Z,0.82
2022-11-21T12:29:26.913Z,0.80
2022-11-21T12:32:29.157Z,0.82
2022-11-21T12:35:14.695Z,0.80
2022-11-21T12:37:44.421Z,0.95
2022-11-21T12:40:29.836Z,0.90
2022-11-21T12:43:18.266Z,0.68
2022-11-21T12:46:10.720Z,0.82
2022-11-21T12:49:25.658Z,1.83
2022-11-21T12:52:41.060Z,2.28
2022-11-21T12:55:24.750Z,1.23
2022-11-21T12:58:00.773Z,1.00
2022-11-21T13:00:27.572Z,0.95
2022-11-21T13:03:12.920Z,1.27
2022-11-21T13:05:43.055Z,0.90
2022-11-21T13:08:12.830Z,0.90
2022-11-21T13:11:17.165Z,0.80
2022-11-21T13:13:47.226Z,0.70
2022-11-21T13:16:36.893Z,0.82
2022-11-21T13:19:16.378Z,1.10
2022-11-21T13:21:48.665Z,1.00
2022-11-21T13:24:47.576Z,0.90
2022-11-21T13:27:37.886Z,1.17
2022-11-21T13:30:09.154Z,0.80
2022-11-21T13:32:51.120Z,0.93
2022-11-21T13:35:20.931Z,1.00
2022-11-21T13:37:50.514Z,0.85
2022-11-21T13:40:32.061Z,0.93
2022-11-21T13:43:32.616Z,1.00
2022-11-21T13:45:59.937Z,0.70
2022-11-21T13:48:34.582Z,0.60
2022-11-21T13:51:02.048Z,0.82
2022-11-21T13:53:51.049Z,0.85
2022-11-21T13:56:30.836Z,1.00
2022-11-21T13:59:19.563Z,0.63
2022-11-21T14:02:01.191Z,0.88
2022-11-21T14:05:12.400Z,0.82
2022-11-21T14:07:41.115Z,0.70
2022-11-21T14:10:25.919Z,1.17
2022-11-21T14:12:54.765Z,0.50
2022-11-21T14:15:39.976Z,0.50
2022-11-21T14:18:14.741Z,0.80
2022-11-21T14:21:00.726Z,0.40
2022-11-21T14:23:33.270Z,0.57
2022-11-21T14:26:04.810Z,0.30
2022-11-21T14:28:35.881Z,0.32
2022-11-21T14:31:06.512Z,0.40
2022-11-21T14:33:35.474Z,0.68
2022-11-21T14:36:31.591Z,0.73
2022-11-21T14:39:35.936Z,0.80
2022-11-21T14:41:56.720Z,0.60
2022-11-21T14:44:24.617Z,0.40
2022-11-21T14:47:03.394Z,0.40
2022-11-21T14:49:30.458Z,0.60
2022-11-21T14:52:12.232Z,0.63
2022-11-21T14:55:27.927Z,0.70
2022-11-21T14:57:44.987Z,0.50
2022-11-21T15:00:43.268Z,0.70
2022-11-21T15:03:03.762Z,0.80
2022-11-21T15:06:00.753Z,0.40
2022-11-21T15:08:53.764Z,0.40
2022-11-21T15:11:13.171Z,0.25
2022-11-21T15:14:06.621Z,0.40
2022-11-21T15:16:28.096Z,0.60
2022-11-21T15:18:55.193Z,0.40
2022-11-21T15:21:22.044Z,0.70
2022-11-21T15:23:48.842Z,0.57
2022-11-21T15:26:32.966Z,0.60
2022-11-21T15:29:00.860Z,0.75
2022-11-21T15:31:28.350Z,0.63
2022-11-21T15:34:34.820Z,0.50
2022-11-21T15:37:06.018Z,0.70
2022-11-21T15:39:34.433Z,0.57
2022-11-21T15:42:27.752Z,1.33
2022-11-21T15:45:02.512Z,0.60
2022-11-21T15:47:29.814Z,1.17
2022-11-21T15:49:56.818Z,0.70
2022-11-21T15:52:23.918Z,0.82
2022-11-21T15:54:50.854Z,0.70
2022-11-21T15:59:47.343Z,0.80
2022-11-21T16:02:14.798Z,0.73
2022-11-21T16:04:42.375Z,0.77
2022-11-21T16:07:10.215Z,0.90
2022-11-21T16:09:37.859Z,0.80
2022-11-21T16:12:04.902Z,0.77
2022-11-21T16:14:31.665Z,0.80
2022-11-21T16:16:58.443Z,0.77
2022-11-21T16:19:25.910Z,0.50
2022-11-21T16:21:53.718Z,0.63
2022-11-21T16:24:20.746Z,0.50
2022-11-21T16:26:49.289Z,0.40
2022-11-21T16:29:16.061Z,0.40
2022-11-21T16:31:42.833Z,0.22
2022-11-21T16:34:09.650Z,0.60
2022-11-21T16:36:37.229Z,0.35
2022-11-21T16:39:10.115Z,0.50
2022-11-21T16:41:41.064Z,0.50
2022-11-21T16:44:14.219Z,0.57
2022-11-21T16:46:48.116Z,0.57
2022-11-21T16:49:15.086Z,0.60
2022-11-21T16:51:41.899Z,0.70
2022-11-21T16:54:09.586Z,0.70
2022-11-21T16:56:36.969Z,0.63
2022-11-21T16:59:03.925Z,0.73
2022-11-21T17:01:30.761Z,0.40
2022-11-21T17:03:57.678Z,0.60
2022-11-21T17:06:28.467Z,0.50
2022-11-21T17:08:55.268Z,1.33
2022-11-21T17:11:26.471Z,0.70
2022-11-21T17:13:53.210Z,0.50
2022-11-21T17:16:21.749Z,0.70
2022-11-21T17:18:52.535Z,0.80
2022-11-21T17:21:19.305Z,0.90
2022-11-21T17:23:48.173Z,0.82
2022-11-21T17:26:18.380Z,0.88
2022-11-21T17:28:50.582Z,0.93
2022-11-21T17:31:17.632Z,0.70
2022-11-21T17:33:47.105Z,0.75
2022-11-21T17:36:14.945Z,1.10
2022-11-21T17:38:43.057Z,1.08
2022-11-21T17:41:12.161Z,1.20
2022-11-21T17:43:39.154Z,0.93
2022-11-21T17:46:13.333Z,1.00
2022-11-21T17:48:40.857Z,0.70
2022-11-21T17:51:18.345Z,0.82
2022-11-21T17:53:47.283Z,0.70
2022-11-21T17:56:16.443Z,0.60
2022-11-21T17:58:43.303Z,0.50
2022-11-21T18:01:19.351Z,0.60
2022-11-21T18:04:10.315Z,1.00
2022-11-21T18:06:41.544Z,1.00
2022-11-21T18:09:11.495Z,0.80
2022-11-21T18:11:40.565Z,1.10
2022-11-21T18:14:09.355Z,1.48
2022-11-21T18:16:36.395Z,1.40
2022-11-21T18:19:03.216Z,1.33
2022-11-21T18:21:32.040Z,1.42
2022-11-21T18:24:01.914Z,1.33
2022-11-21T18:26:31.552Z,1.20
2022-11-21T18:31:48.675Z,1.30
2022-11-21T18:34:15.509Z,1.60
2022-11-21T18:36:42.480Z,1.30
2022-11-21T18:39:14.568Z,1.45
2022-11-21T18:41:42.748Z,1.73
2022-11-21T18:44:10.069Z,1.30
2022-11-21T18:46:38.674Z,1.38
2022-11-21T18:49:07.354Z,1.30
2022-11-21T18:51:35.918Z,1.10
2022-11-21T18:54:07.289Z,1.17
2022-11-21T18:56:35.500Z,1.00
2022-11-21T18:59:03.896Z,0.80
2022-11-21T19:01:31.952Z,0.70
2022-11-21T19:03:59.580Z,0.70
2022-11-21T19:06:27.849Z,0.80
2022-11-21T19:08:56.238Z,1.00
2022-11-21T19:11:25.307Z,0.60
2022-11-21T19:13:53.287Z,0.60
2022-11-21T19:16:24.353Z,0.40
2022-11-21T19:19:18.786Z,0.43
2022-11-21T19:21:39.913Z,0.70
2022-11-21T19:24:07.556Z,0.93
2022-11-21T19:26:34.376Z,0.90
2022-11-21T19:29:01.681Z,0.90
2022-11-21T19:31:28.455Z,1.10
2022-11-21T19:33:55.181Z,0.90
2022-11-21T19:36:23.691Z,1.10
2022-11-21T19:38:51.820Z,1.27
2022-11-21T19:41:21.910Z,1.48
2022-11-21T19:43:49.788Z,1.23
2022-11-21T19:46:22.476Z,1.00
2022-11-21T19:48:50.976Z,0.80
2022-11-21T19:51:19.177Z,0.90
2022-11-21T19:53:46.163Z,0.95
2022-11-21T19:56:14.374Z,0.80
2022-11-21T19:58:42.284Z,0.80
2022-11-21T20:01:14.734Z,0.98
2022-11-21T20:03:44.667Z,1.10
2022-11-21T20:06:22.382Z,1.13
2022-11-21T20:08:56.971Z,1.15
2022-11-21T20:11:24.770Z,1.10
2022-11-21T20:13:51.753Z,1.30
2022-11-21T20:16:41.354Z,1.10
2022-11-21T20:19:11.531Z,0.98
2022-11-21T20:21:38.867Z,1.30
2022-11-21T20:24:06.595Z,1.00
2022-11-21T20:26:34.060Z,0.90
2022-11-21T20:29:01.115Z,0.93
2022-11-21T20:31:39.667Z,0.82
2022-11-21T20:34:11.510Z,0.93
2022-11-21T20:36:39.094Z,0.93
2022-11-21T20:39:08.357Z,1.00
2022-11-21T20:41:36.888Z,0.90
2022-11-21T20:46:53.648Z,1.20
2022-11-21T20:49:20.358Z,0.90
2022-11-21T20:54:34.659Z,0.80
2022-11-21T20:57:01.737Z,1.20
2022-11-21T20:59:28.886Z,1.77
2022-11-21T21:01:55.941Z,1.15
2022-11-21T21:04:22.697Z,0.93
2022-11-21T21:06:49.460Z,0.88
2022-11-21T21:09:16.230Z,1.20
2022-11-21T21:11:58.222Z,0.90
2022-11-21T21:14:25.020Z,1.20
2022-11-21T21:16:51.786Z,0.80
2022-11-21T21:19:18.722Z,0.85
2022-11-21T21:21:45.808Z,0.90
2022-11-21T21:24:13.500Z,0.80
2022-11-21T21:26:43.934Z,1.00
2022-11-21T21:29:16.832Z,1.10
2022-11-21T21:31:49.887Z,0.73
2022-11-21T21:34:17.950Z,1.10
2022-11-21T21:36:44.839Z,0.80
2022-11-21T21:39:11.734Z,0.98
2022-11-21T21:41:46.165Z,0.95
2022-11-21T21:44:14.006Z,0.60
2022-11-21T21:46:40.958Z,0.60
2022-11-21T21:49:07.999Z,0.88
2022-11-21T21:51:37.214Z,0.73
2022-11-21T21:54:05.107Z,1.00
2022-11-21T21:56:31.995Z,0.90
2022-11-21T21:58:59.671Z,1.10
2022-11-21T22:01:29.444Z,0.90
2022-11-21T22:03:58.919Z,0.90
2022-11-21T22:06:26.309Z,0.80
2022-11-21T22:08:54.628Z,0.98
2022-11-21T22:11:27.030Z,0.93
2022-11-21T22:14:02.009Z,0.73
2022-11-21T22:16:29.520Z,0.80
2022-11-21T22:18:57.430Z,0.82
2022-11-21T22:21:30.129Z,1.10
2022-11-21T22:24:23.429Z,0.93
2022-11-21T22:26:45.543Z,1.10
2022-11-21T22:29:12.384Z,0.90
2022-11-21T22:31:39.142Z,2.25
2022-11-21T22:34:05.879Z,1.42
2022-11-21T22:36:32.883Z,1.00
2022-11-21T22:38:59.688Z,0.93
2022-11-21T22:41:27.588Z,1.02
2022-11-21T22:43:58.933Z,1.20
2022-11-21T22:46:27.891Z,1.20
2022-11-21T22:48:55.015Z,1.20
2022-11-21T22:51:27.077Z,1.00
2022-11-21T22:53:53.942Z,1.00
2022-11-21T22:56:22.734Z,0.90
2022-11-21T22:58:50.267Z,1.00
2022-11-21T23:01:19.969Z,0.88
2022-11-21T23:03:47.669Z,1.13
2022-11-21T23:06:23.597Z,0.85
2022-11-21T23:08:51.968Z,1.20
2022-11-21T23:11:24.518Z,1.10
2022-11-21T23:13:51.608Z,1.50
2022-11-21T23:16:18.904Z,1.65
2022-11-21T23:18:46.047Z,1.00
2022-11-21T23:21:13.822Z,1.00
2022-11-21T23:23:41.206Z,1.25
2022-11-21T23:26:08.186Z,1.00
2022-11-21T23:28:35.096Z,1.25
2022-11-21T23:31:02.390Z,1.30
2022-11-21T23:33:29.140Z,1.20
2022-11-21T23:35:56.083Z,1.63
2022-11-21T23:38:23.042Z,1.60
2022-11-21T23:40:50.144Z,1.23
2022-11-21T23:43:17.860Z,1.55
2022-11-21T23:45:45.543Z,1.50
2022-11-21T23:48:12.683Z,1.85
2022-11-21T23:50:39.497Z,1.60
2022-11-21T23:53:06.239Z,1.45
2022-11-21T23:55:33.040Z,1.48
2022-11-21T23:57:59.876Z,1.50
